メインページ
METAR-TAF:

METAR-TAF

空港 :

クアラルンプール国際空港

クアラルンプール, マレーシア

緯度: 02-44N, 経度: 101-42E, 海抜: 21m

現時点の気象観測

当レポートは29分前の14:00(UTC)に作成
変向風 2kt
気温 28°C
湿度 84%
気圧 1009 hPa
視程10km以上
高度3000ftの雲はほとんどない
高度14000ftの雲は散在している
高度28000ftの千切れ雲あり

METAR: WMKK 201400Z VRB02KT 9999 FEW030 SCT140 BKN280 28/25 Q1009 NOSIG

時間: 22:29 (14:29 UTC)

予報

当レポートは3時間29分前の11:00(UTC)に作成
予報は20日の 12時(UTC)から 21日の 18時(UTC)まで有効
南/南西の風 6kt
視程10km以上
高度1800ftの雲はほとんどない
20日の 12時(UTC)から 20日の 16時(UTC)まで一時的に
視程: 3000m
高度800ftの雲はほとんどない
高度1600ftの雲はほとんどない, 積乱雲.
高度1800ftの雲は散在している
激しい雷雨, 雨
20日の 18時(UTC)から 20日の 20時(UTC)まで徐々に
変向風 2kt
21日の 00時(UTC)から 21日の 02時(UTC)まで徐々に
南/南東の風 6kt

TAF: WMKK 201100Z 2012/2118 21006KT 9999 FEW018 TEMPO 2012/2016 3000 TSRA FEW008 FEW016CB SCT018 BECMG 2018/2020 VRB02KT BECMG 2100/2102 15006KT

4,000以上の空港の気象観測と天気予報(METAR報とTAF報)

利用可能な観測所は地図上に黄色い丸と赤い丸で示す。

丸の上にカーソルを重ねると観測所名を参照できる。

次にクリックすると気象観測と天気予報を参照できる。

マップの切り替え:黒色「×」印の緑ボタンをクリックして拡大、「-」印の緑ボタンをクリックして縮小、緑色の三角印をクリックして隣りの地図に切り替え


METAR-TAF: